WESTPORT MEDIA Westport In The Media

Enter your "Place, State", US Zip Code or ICAO:  

Palma De Mallorca / Son San Juan, Spain

 Lat: 39.55N, Lon: 2.73E
ICAO Used: LEPA
Current Conditions
Updated: 7:30 PM GMT1 SAT OCT 25 2014
Sun & Moon Information
Fair
Fair
Temp: 22°C
Humidity: 68%
Wind Speed: CALM
Barometer: 1020 mb
Dewpoint: 16°C
Heat Index: 24°C
Wind Chill: 22°C
Civil Twilight: 6:40 AM GMT1 Moon Phase:
Waxing Crescent Moon
Sunrise: 7:08 AM GMT1
Sunset: 5:57 PM GMT1
Civil Twilight: 6:24 PM GMT1
Forecast for Palma De Mallorca / Son San Juan, Spain:
(Forecast based on TAF for )
1100 AM GMT1 SAT OCT 25 2014
  
MORNING AFTERNOON EVENING OVERNIGHT
Fair Fair Fair Fair
ZoneCast:
Dated: 1100 AM GMT1 SAT OCT 25 2014
Morning...Becoming fair with winds from the southwest at 12 mph.

Afternoon...Fair with winds from the southwest at 12 mph.

Evening...Fair with winds from the southwest at 12 mph.

Overnight...Fair with winds from the southwest at 12 mph.

Original Encoded TAF:
Dated: 1100 AM GMT1 SAT OCT 25 2014
TAF LEPA 251700Z 2518/2618 06005KT 9999 FEW014 TX26/2612Z TN09/2606Z 
     BECMG 2610/2612 23010KT